KRSL

Russell Municipal Airport

Russell, Kansas, USA
METAR KRSL 230453Z AUTO 06006KT 10SM CLR 12/09 A3019 RMK AO2 SLP221 T01170089
Observed Flight Rules
Oct-23 @ 04:53 UTC (41 minutes ago) Visual Flight Rules
Wind Visibility Clouds
60° at 6 knots 10 miles
  • Clear skies
Temperatures Readings
Current 12°C / 54°F
Dewpoint 9°C / 48°F
Humidity 82%
Altimeter 30.19" Hg
Pressure 1022.1 hPa
Elevation 567
METAR KRSL 230453Z AUTO 06006KT 10SM CLR 12/09 A3019 RMK AO2 SLP221 T01170089
Observed Flight Rules
Oct-23 @ 04:53 UTC
(41 minutes ago)
VFR
Wind Visibility
60° at 6 knots 10 miles
Clouds
  • Clear skies
Temperature Dewpoint
12°C / 54°F 9°C / 48°F
Humidity Altimeter Pressure
82% 30.19" Hg 1022.1 hPa